Time;durP1;ratioP1;P1;durP2;ratioP2;P2;SDS_P1;SDS_P2;PMS_P1;PMS_P2;Temp;Humidity;BMP_temperature;BMP_pressure;BME280_temperature;BME280_humidity;BME280_pressure;Samples;Min_cycle;Max_cycle;Signal;HPM_P1;HPM_P2
2023/05/29 00:00:00;;;;;;;;;;;;;;;11.61;77.25;102273.13;5064381;28;1620;-74
2023/05/29 00:02:25;;;;;;;;;;;;;;;11.58;77.00;102268.94;5068011;28;1397;-72
2023/05/29 00:04:50;;;;;;;;;;;;;;;11.57;77.78;102277.66;5069248;28;1261;-72
2023/05/29 00:07:16;;;;;;;;;;;;;;;11.49;77.89;102274.72;5040573;28;1446;-72
2023/05/29 00:09:41;;;;;;;;;;;;;;;11.37;78.14;102280.69;5067529;28;1992;-71
2023/05/29 00:12:07;;;;;;;;;;;;;;;11.35;78.04;102277.34;5067037;28;1670;-72
2023/05/29 00:14:32;;;;;;;;;;;;;;;11.40;77.90;102290.88;5044709;28;1116;-72
2023/05/29 00:16:57;;;;;;;;;;;;;;;11.40;77.31;102290.88;5058142;28;1100;-71
2023/05/29 00:19:24;;;;;;;;;;;;;;;11.35;77.47;102287.72;5061971;28;1788;-71
2023/05/29 00:21:50;;;;;;;;;;;;;;;11.27;77.85;102295.16;5061716;28;1011;-72
2023/05/29 00:24:15;;;;;;;;;;;;;;;11.28;77.39;102291.63;5065080;28;1025;-71
2023/05/29 00:26:41;;;;;;;;;;;;;;;11.22;77.55;102292.84;5067659;28;1094;-71
2023/05/29 00:29:06;;;;;;;;;;;;;;;11.20;77.19;102294.72;5041809;28;1949;-72
2023/05/29 00:31:32;;;;;;;;;;;;;;;11.16;78.10;102304.44;5064891;28;1165;-73
2023/05/29 00:33:57;;;;;;;;;;;;;;;11.14;77.95;102303.69;5067071;28;1036;-71
2023/05/29 00:36:23;;;;;;;;;;;;;;;11.19;77.47;102307.78;5061935;28;1104;-72
2023/05/29 00:38:48;;;;;;;;;;;;;;;11.17;77.35;102306.09;5070847;28;1061;-71
2023/05/29 00:41:15;;;;;;;;;;;;;;;11.15;77.86;102307.97;5068676;28;1013;-73
2023/05/29 00:43:40;;;;;;;;;;;;;;;11.09;77.28;102303.16;5061940;28;1246;-72
2023/05/29 00:46:05;;;;;;;;;;;;;;;11.04;77.66;102299.16;5049320;28;1286;-71
2023/05/29 00:48:30;;;;;;;;;;;;;;;10.97;77.80;102308.25;5045855;28;1906;-72
2023/05/29 00:50:56;;;;;;;;;;;;;;;10.97;77.80;102309.06;5063224;28;969;-73
2023/05/29 00:53:22;;;;;;;;;;;;;;;10.97;77.56;102309.06;5058619;28;1372;-73
2023/05/29 00:55:47;;;;;;;;;;;;;;;10.98;77.66;102315.94;5058921;28;1229;-72
2023/05/29 00:58:13;;;;;;;;;;;;;;;11.02;77.22;102317.44;5060596;28;1224;-71
2023/05/29 01:00:38;;;;;;;;;;;;;;;11.06;77.01;102318.88;5057479;28;1387;-72
2023/05/29 01:03:04;;;;;;;;;;;;;;;11.04;77.99;102314.72;5060779;28;1363;-73
2023/05/29 01:05:31;;;;;;;;;;;;;;;10.97;77.67;102314.25;5044331;28;1337;-71
2023/05/29 01:07:56;;;;;;;;;;;;;;;10.96;77.79;102317.78;5036701;28;1355;-71
2023/05/29 01:10:21;;;;;;;;;;;;;;;10.98;77.16;102315.94;5041314;28;1941;-72
2023/05/29 01:12:49;;;;;;;;;;;;;;;10.96;77.78;102317.78;5042157;28;1231;-71
2023/05/29 01:15:14;;;;;;;;;;;;;;;10.97;77.56;102323.81;5049443;28;1117;-73
2023/05/29 01:17:55;;;;;;;;;;;;;;;10.99;77.21;102322.78;5068359;28;1268;-72
2023/05/29 01:20:21;;;;;;;;;;;;;;;10.99;77.24;102327.97;5066059;28;1264;-72
2023/05/29 01:22:46;;;;;;;;;;;;;;;10.97;76.65;102319.47;5047200;28;1346;-73
2023/05/29 01:25:17;;;;;;;;;;;;;;;10.98;77.05;102320.28;5065244;28;1431;-71
2023/05/29 01:27:44;;;;;;;;;;;;;;;10.96;77.17;102323.00;5065396;28;1149;-71
2023/05/29 01:30:11;;;;;;;;;;;;;;;10.97;76.68;102335.03;5057155;28;1957;-71
2023/05/29 01:32:36;;;;;;;;;;;;;;;10.98;76.35;102334.09;5058829;28;1217;-71
2023/05/29 01:35:01;;;;;;;;;;;;;;;10.97;76.24;102334.19;5053872;28;1486;-71
2023/05/29 01:37:27;;;;;;;;;;;;;;;10.93;76.93;102343.91;5054146;28;1108;-72
2023/05/29 01:39:52;;;;;;;;;;;;;;;10.88;76.36;102346.78;5038002;28;1440;-72
2023/05/29 01:42:18;;;;;;;;;;;;;;;10.84;76.23;102334.09;5046721;28;1323;-71
2023/05/29 01:44:43;;;;;;;;;;;;;;;10.79;76.62;102346.50;5057789;28;1569;-72
2023/05/29 01:47:08;;;;;;;;;;;;;;;10.62;77.51;102340.53;5034465;28;1164;-71
2023/05/29 01:49:36;;;;;;;;;;;;;;;10.58;77.71;102339.03;5043627;28;1889;-71
2023/05/29 01:52:01;;;;;;;;;;;;;;;10.53;77.68;102335.84;5062587;28;1288;-72
2023/05/29 01:54:27;;;;;;;;;;;;;;;10.48;77.55;102332.69;5061119;28;1415;-72
2023/05/29 01:56:52;;;;;;;;;;;;;;;10.43;77.79;102334.69;5047995;28;1429;-71
2023/05/29 01:59:17;;;;;;;;;;;;;;;10.37;77.45;102328.09;5065129;28;1177;-72
2023/05/29 02:01:42;;;;;;;;;;;;;;;10.35;78.44;102326.53;5062885;28;1214;-71
2023/05/29 02:04:08;;;;;;;;;;;;;;;10.33;78.17;102324.03;5063485;28;1227;-73
2023/05/29 02:06:33;;;;;;;;;;;;;;;10.35;78.40;102326.53;5061046;28;1038;-71
2023/05/29 02:08:59;;;;;;;;;;;;;;;10.34;78.01;102327.44;5064758;28;1890;-72
2023/05/29 02:11:25;;;;;;;;;;;;;;;10.26;78.00;102327.88;5066177;28;1267;-71
2023/05/29 02:13:51;;;;;;;;;;;;;;;10.23;78.19;102328.06;5044678;28;1237;-72
2023/05/29 02:16:16;;;;;;;;;;;;;;;10.20;78.88;102324.75;5061089;28;1504;-72
2023/05/29 02:18:43;;;;;;;;;;;;;;;10.11;78.85;102324.34;5022823;28;1099252;-72
2023/05/29 02:21:08;;;;;;;;;;;;;;;10.10;78.87;102335.66;5056716;28;1076;-72
2023/05/29 02:23:33;;;;;;;;;;;;;;;10.06;78.83;102328.97;5059184;28;1157;-72
2023/05/29 02:25:59;;;;;;;;;;;;;;;10.00;79.62;102337.06;5068231;28;1274;-72
2023/05/29 02:28:24;;;;;;;;;;;;;;;9.94;80.14;102337.41;5057811;28;1985;-71
2023/05/29 02:30:50;;;;;;;;;;;;;;;9.88;80.66;102342.09;5047012;28;1225;-71
2023/05/29 02:33:15;;;;;;;;;;;;;;;9.77;82.17;102340.09;5067132;28;1139;-71
2023/05/29 02:35:40;;;;;;;;;;;;;;;9.76;81.17;102344.44;5043992;28;1251;-72
2023/05/29 02:38:06;;;;;;;;;;;;;;;9.78;81.32;102344.34;5044693;28;1326;-73
2023/05/29 02:40:31;;;;;;;;;;;;;;;9.74;81.41;102341.06;5043938;28;1233;-73
2023/05/29 02:42:56;;;;;;;;;;;;;;;9.69;81.35;102337.91;5049688;28;1169;-73
2023/05/29 02:45:21;;;;;;;;;;;;;;;9.69;81.56;102332.72;5067262;28;1569;-72
2023/05/29 02:47:47;;;;;;;;;;;;;;;9.71;81.29;102324.88;5065538;28;968;-71
2023/05/29 02:50:14;;;;;;;;;;;;;;;9.70;81.75;102330.97;5064736;28;1910;-72
2023/05/29 02:52:39;;;;;;;;;;;;;;;9.68;81.44;102335.38;5063790;28;1452;-73
2023/05/29 02:55:05;;;;;;;;;;;;;;;9.68;81.98;102330.19;5065459;28;1790;-71
2023/05/29 02:57:30;;;;;;;;;;;;;;;9.63;81.69;102343.41;5069049;28;1241;-72
2023/05/29 02:59:56;;;;;;;;;;;;;;;9.62;82.25;102340.91;5060082;28;1805;-71
2023/05/29 03:02:21;;;;;;;;;;;;;;;9.63;82.00;102332.19;5067874;28;1284;-72
2023/05/29 03:04:46;;;;;;;;;;;;;;;9.61;82.53;102339.22;5069430;28;1201;-71
2023/05/29 03:07:12;;;;;;;;;;;;;;;9.62;81.32;102340.91;5070141;28;1498;-71
2023/05/29 03:09:38;;;;;;;;;;;;;;;9.60;81.94;102347.94;5065097;28;1903;-71
2023/05/29 03:12:03;;;;;;;;;;;;;;;9.60;82.21;102337.56;5062394;28;1196;-72
2023/05/29 03:14:28;;;;;;;;;;;;;;;9.54;82.66;102341.31;5063766;28;1237;-71
2023/05/29 03:16:54;;;;;;;;;;;;;;;9.54;82.40;102339.56;5065634;28;1299;-72
2023/05/29 03:19:19;;;;;;;;;;;;;;;9.50;82.64;102348.41;5064319;28;1055;-71
2023/05/29 03:21:45;;;;;;;;;;;;;;;9.51;81.93;102346.63;5057536;28;1237;-72
2023/05/29 03:24:10;;;;;;;;;;;;;;;9.46;82.31;102351.22;5064652;28;1145;-73
2023/05/29 03:26:36;;;;;;;;;;;;;;;9.46;81.92;102341.72;5066924;28;946;-73
2023/05/29 03:29:01;;;;;;;;;;;;;;;9.43;82.44;102347.06;5067057;28;1906;-71
2023/05/29 03:31:27;;;;;;;;;;;;;;;9.38;82.72;102346.44;5058259;28;1284;-72
2023/05/29 03:33:52;;;;;;;;;;;;;;;9.38;83.35;102349.03;5062066;28;981;-72
2023/05/29 03:36:17;;;;;;;;;;;;;;;9.37;82.96;102357.72;5038431;28;1578;-70
2023/05/29 03:38:43;;;;;;;;;;;;;;;9.39;82.80;102357.66;5069259;28;1453;-72
2023/05/29 03:41:08;;;;;;;;;;;;;;;9.40;82.42;102357.56;5070050;28;1087;-73
2023/05/29 03:43:33;;;;;;;;;;;;;;;9.38;82.72;102359.41;5066665;28;1384;-72
2023/05/29 03:45:59;;;;;;;;;;;;;;;9.31;83.25;102358.06;5068565;28;1229;-72
2023/05/29 03:48:24;;;;;;;;;;;;;;;9.31;82.80;102358.06;5061555;28;1902;-72
2023/05/29 03:50:49;;;;;;;;;;;;;;;9.26;83.11;102350.53;5050981;28;1308;-72
2023/05/29 03:53:14;;;;;;;;;;;;;;;9.26;82.66;102349.69;5063421;28;1261;-71
2023/05/29 03:55:40;;;;;;;;;;;;;;;9.26;82.67;102345.34;5068342;28;1216;-71
2023/05/29 03:58:05;;;;;;;;;;;;;;;9.28;83.18;102358.19;5058043;28;1275;-72
2023/05/29 04:00:31;;;;;;;;;;;;;;;9.30;82.16;102356.38;5059434;28;1276;-73
2023/05/29 04:02:56;;;;;;;;;;;;;;;9.34;82.21;102363.06;5062974;28;1276;-72
2023/05/29 04:05:21;;;;;;;;;;;;;;;9.36;83.37;102358.66;5069765;28;1215;-72
2023/05/29 04:07:47;;;;;;;;;;;;;;;9.31;82.50;102364.06;5067767;28;1276;-71
2023/05/29 04:10:12;;;;;;;;;;;;;;;9.26;82.85;102370.41;5065648;28;1890;-71
2023/05/29 04:12:37;;;;;;;;;;;;;;;9.19;83.07;102369.03;5062415;28;1248;-71
2023/05/29 04:15:03;;;;;;;;;;;;;;;9.18;83.17;102362.19;5064649;28;1344;-71
2023/05/29 04:17:28;;;;;;;;;;;;;;;9.20;83.86;102370.72;5050925;28;1403;-73
2023/05/29 04:19:53;;;;;;;;;;;;;;;9.24;82.84;102364.47;5068906;28;1003;-71
2023/05/29 04:22:19;;;;;;;;;;;;;;;9.20;83.54;102360.34;5046353;28;1208;-72
2023/05/29 04:24:44;;;;;;;;;;;;;;;9.21;83.22;102364.63;5065638;28;1025;-72
2023/05/29 04:27:12;;;;;;;;;;;;;;;9.21;83.74;102367.19;5045293;28;1497;-72
2023/05/29 04:29:40;;;;;;;;;;;;;;;9.18;83.25;102373.38;5054816;28;1894;-71
2023/05/29 04:32:06;;;;;;;;;;;;;;;9.14;83.03;102371.03;5067141;28;866;-71
2023/05/29 04:34:31;;;;;;;;;;;;;;;9.19;82.92;102375.06;5059325;28;1030;-72
2023/05/29 04:36:58;;;;;;;;;;;;;;;9.23;83.40;102375.72;5059572;28;1040;-72
2023/05/29 04:39:23;;;;;;;;;;;;;;;9.28;82.91;102373.72;5045670;28;1501;-72
2023/05/29 04:41:49;;;;;;;;;;;;;;;9.30;82.78;102377.09;5050390;28;1315;-70
2023/05/29 04:44:14;;;;;;;;;;;;;;;9.31;82.56;102369.25;5065536;28;1078;-70
2023/05/29 04:46:40;;;;;;;;;;;;;;;9.36;82.70;102368.19;5046508;28;1266;-71
2023/05/29 04:49:05;;;;;;;;;;;;;;;9.35;82.63;102369.94;5065196;28;1992;-71
2023/05/29 04:51:31;;;;;;;;;;;;;;;9.32;82.57;102376.09;5060049;28;1139;-71
2023/05/29 04:53:56;;;;;;;;;;;;;;;9.38;82.16;102385.28;5044087;28;1244;-71
2023/05/29 04:56:22;;;;;;;;;;;;;;;9.43;82.59;102385.06;5043245;28;1277;-70
2023/05/29 04:58:47;;;;;;;;;;;;;;;9.47;82.51;102390.00;5047419;28;1314;-71
2023/05/29 05:01:14;;;;;;;;;;;;;;;9.51;82.27;102401.88;5067908;28;1692;-71
2023/05/29 05:03:39;;;;;;;;;;;;;;;9.49;82.39;102403.72;5067432;28;1224;-72
2023/05/29 05:06:07;;;;;;;;;;;;;;;9.51;82.20;102401.88;5069675;28;1204;-71
2023/05/29 05:08:32;;;;;;;;;;;;;;;9.55;81.85;102398.22;5051441;28;1893;-72
2023/05/29 05:10:58;;;;;;;;;;;;;;;9.60;81.81;102410.94;5056630;28;1475;-71
2023/05/29 05:13:24;;;;;;;;;;;;;;;9.58;81.37;102403.25;5056590;28;1154;-71
2023/05/29 05:15:49;;;;;;;;;;;;;;;9.61;81.38;102406.56;5068494;28;1339;-70
2023/05/29 05:18:14;;;;;;;;;;;;;;;9.64;81.55;102411.63;5050107;28;1307;-71
2023/05/29 05:20:39;;;;;;;;;;;;;;;9.66;81.82;102418.38;5058604;28;1153;-70
2023/05/29 05:23:05;;;;;;;;;;;;;;;9.69;80.83;102419.97;5059990;28;1228;-71
2023/05/29 05:25:30;;;;;;;;;;;;;;;9.64;81.14;102416.81;5043073;28;1254;-73
2023/05/29 05:27:55;;;;;;;;;;;;;;;9.68;81.16;102426.06;5056556;28;1565;-72
2023/05/29 05:30:21;;;;;;;;;;;;;;;9.70;81.56;102416.47;5065966;28;1914;-73
2023/05/29 05:32:46;;;;;;;;;;;;;;;9.70;81.25;102416.47;5049004;28;1190;-71
2023/05/29 05:35:11;;;;;;;;;;;;;;;9.72;81.37;102419.81;5067857;28;1224;-71
2023/05/29 05:37:37;;;;;;;;;;;;;;;9.75;80.61;102422.25;5049337;28;1395;-70
2023/05/29 05:40:03;;;;;;;;;;;;;;;9.75;80.64;102414.47;5046636;28;1294;-72
2023/05/29 05:42:28;;;;;;;;;;;;;;;9.81;80.72;102420.19;5066340;28;1111;-72
2023/05/29 05:44:54;;;;;;;;;;;;;;;9.88;80.60;102420.69;5062291;28;1225;-72
2023/05/29 05:47:19;;;;;;;;;;;;;;;9.95;80.13;102416.84;5064468;28;1238;-72
2023/05/29 05:49:44;;;;;;;;;;;;;;;10.00;80.52;102425.22;5066166;28;1902;-71
2023/05/29 05:52:10;;;;;;;;;;;;;;;10.06;79.81;102422.28;5064773;28;1408;-71
2023/05/29 05:54:35;;;;;;;;;;;;;;;10.08;79.14;102424.78;5044929;28;1513;-73
2023/05/29 05:57:00;;;;;;;;;;;;;;;10.15;79.70;102422.69;5067824;28;1204;-72
2023/05/29 05:59:26;;;;;;;;;;;;;;;10.20;79.57;102433.66;5057630;28;1197;-71
2023/05/29 06:01:51;;;;;;;;;;;;;;;10.23;78.42;102429.19;5063813;28;1178;-72
2023/05/29 06:04:17;;;;;;;;;;;;;;;10.24;77.94;102423.06;5062242;28;1315;-72
2023/05/29 06:06:42;;;;;;;;;;;;;;;10.28;78.46;102418.56;5046636;28;1305;-70
2023/05/29 06:09:07;;;;;;;;;;;;;;;10.30;77.61;102416.72;5044728;28;1902;-72
2023/05/29 06:11:32;;;;;;;;;;;;;;;10.34;77.85;102428.59;5033354;28;1379;-71
2023/05/29 06:13:58;;;;;;;;;;;;;;;10.42;76.99;102429.00;5049981;28;1269;-71
2023/05/29 06:16:23;;;;;;;;;;;;;;;10.45;76.29;102431.44;5029743;28;1334;-72
2023/05/29 06:18:48;;;;;;;;;;;;;;;10.50;76.82;102445.00;5038173;28;1399;-73
2023/05/29 06:21:14;;;;;;;;;;;;;;;10.56;76.36;102434.28;5043136;28;1354;-72
2023/05/29 06:23:41;;;;;;;;;;;;;;;10.64;76.65;102432.06;5049531;28;1153;-71
2023/05/29 06:26:06;;;;;;;;;;;;;;;10.64;74.37;102432.06;5058110;28;1194;-71
2023/05/29 06:28:31;;;;;;;;;;;;;;;10.71;75.16;102432.56;5030896;28;1906;-71
2023/05/29 06:30:56;;;;;;;;;;;;;;;10.77;74.95;102439.16;5056914;28;1225;-71
2023/05/29 06:33:22;;;;;;;;;;;;;;;10.84;73.80;102445.72;5057888;28;1160;-72
2023/05/29 06:35:47;;;;;;;;;;;;;;;10.84;73.93;102432.72;5038681;28;1205;-72
2023/05/29 06:38:13;;;;;;;;;;;;;;;10.90;74.13;102440.16;5057916;28;1163;-73
2023/05/29 06:40:38;;;;;;;;;;;;;;;10.97;73.19;102433.69;5052753;28;1151;-72
2023/05/29 06:43:04;;;;;;;;;;;;;;;11.08;74.71;102436.50;5038690;28;1240;-71
2023/05/29 06:45:29;;;;;;;;;;;;;;;11.14;73.61;102436.16;5049009;28;1182;-71
2023/05/29 06:47:55;;;;;;;;;;;;;;;11.20;73.20;102439.31;5052877;28;1385;-71
2023/05/29 06:50:20;;;;;;;;;;;;;;;11.27;73.23;102440.63;5030105;28;1960;-71
2023/05/29 06:52:45;;;;;;;;;;;;;;;11.36;72.86;102445.28;5057891;28;1088;-73
2023/05/29 06:55:10;;;;;;;;;;;;;;;11.37;71.78;102444.34;5043328;28;1333;-73
2023/05/29 06:57:36;;;;;;;;;;;;;;;11.42;71.85;102445.75;5056128;28;1277;-72
2023/05/29 07:00:01;;;;;;;;;;;;;;;11.50;71.39;102458.28;5049553;28;1278;-72
2023/05/29 07:02:26;;;;;;;;;;;;;;;11.50;71.38;102452.25;5050288;28;1502;-72
2023/05/29 07:04:52;;;;;;;;;;;;;;;11.53;69.56;102452.06;5052987;28;1249;-71
2023/05/29 07:07:17;;;;;;;;;;;;;;;11.55;69.85;102451.03;5036775;28;1440;-74
2023/05/29 07:09:42;;;;;;;;;;;;;;;11.65;70.02;102449.56;5046162;28;1922;-71
2023/05/29 07:12:07;;;;;;;;;;;;;;;11.69;69.51;102443.25;5045183;28;1507;-71
2023/05/29 07:14:33;;;;;;;;;;;;;;;11.70;68.78;102447.53;5031949;28;1266;-71
2023/05/29 07:16:59;;;;;;;;;;;;;;;11.78;67.44;102443.63;5054679;28;1249;-72
2023/05/29 07:19:24;;;;;;;;;;;;;;;11.79;68.25;102447.91;5054578;28;1027;-73
2023/05/29 07:21:49;;;;;;;;;;;;;;;11.85;68.64;102450.16;5048446;28;1268;-74
2023/05/29 07:24:15;;;;;;;;;;;;;;;11.85;66.75;102447.56;5049203;28;1439;-72
2023/05/29 07:26:40;;;;;;;;;;;;;;;11.90;67.36;102455.91;5042132;28;1368;-71
2023/05/29 07:29:05;;;;;;;;;;;;;;;12.01;68.28;102452.66;5039323;28;1902;-71
2023/05/29 07:31:30;;;;;;;;;;;;;;;12.12;67.07;102456.25;5055678;28;1209;-71
2023/05/29 07:33:56;;;;;;;;;;;;;;;12.15;67.00;102456.06;5040106;28;1597;-73
2023/05/29 07:36:21;;;;;;;;;;;;;;;12.20;66.43;102454.00;5053307;28;1160;-72
2023/05/29 07:38:46;;;;;;;;;;;;;;;12.26;65.63;102462.38;5053604;28;1229;-72
2023/05/29 07:41:12;;;;;;;;;;;;;;;12.32;66.16;102461.97;5054310;28;1168;-71
2023/05/29 07:43:37;;;;;;;;;;;;;;;12.40;65.73;102470.16;5052609;28;1218;-72
2023/05/29 07:46:02;;;;;;;;;;;;;;;12.47;64.97;102461.03;5054128;28;1351;-73
2023/05/29 07:48:28;;;;;;;;;;;;;;;12.53;65.25;102460.63;5054534;28;1261;-71
2023/05/29 07:50:53;;;;;;;;;;;;;;;12.59;65.11;102455.03;5055490;28;1894;-72
2023/05/29 07:53:18;;;;;;;;;;;;;;;12.68;65.10;102459.66;5050806;28;1280;-72
2023/05/29 07:55:43;;;;;;;;;;;;;;;12.74;64.70;102474.88;5058068;28;1748;-74
2023/05/29 07:58:11;;;;;;;;;;;;;;;12.84;64.89;102462.06;5050100;28;1236;-72
2023/05/29 08:00:37;;;;;;;;;;;;;;;12.92;64.99;102466.81;5053719;28;1255;-72
2023/05/29 08:03:03;;;;;;;;;;;;;;;13.01;63.40;102471.41;5048464;28;1354;-72
2023/05/29 08:05:28;;;;;;;;;;;;;;;13.07;63.83;102465.78;5048673;28;1300;-73
2023/05/29 08:07:53;;;;;;;;;;;;;;;13.14;63.14;102466.25;5066307;28;1256;-73
2023/05/29 08:10:19;;;;;;;;;;;;;;;13.19;63.41;102470.22;5051620;28;1898;-72
2023/05/29 08:12:44;;;;;;;;;;;;;;;13.33;63.96;102471.09;5051382;28;1169;-73
2023/05/29 08:15:09;;;;;;;;;;;;;;;13.39;62.10;102478.50;5050548;28;1272;-72
2023/05/29 08:17:35;;;;;;;;;;;;;;;13.44;63.02;102476.41;5051222;28;1519;-72
2023/05/29 08:20:00;;;;;;;;;;;;;;;13.48;60.72;102470.91;5050650;28;1145;-72
2023/05/29 08:22:29;;;;;;;;;;;;;;;13.51;62.31;102475.88;5060902;28;1130;-73
2023/05/29 08:24:55;;;;;;;;;;;;;;;13.63;61.84;102479.44;5034145;28;1507;-72
2023/05/29 08:27:20;;;;;;;;;;;;;;;13.74;62.05;102476.91;5036056;28;1196;-71
2023/05/29 08:29:45;;;;;;;;;;;;;;;13.74;60.78;102476.09;5053757;28;1901;-73
2023/05/29 08:32:10;;;;;;;;;;;;;;;13.76;61.09;102467.25;5042494;28;1350;-73
2023/05/29 08:34:36;;;;;;;;;;;;;;;13.78;60.44;102467.97;5053822;28;1452;-72
2023/05/29 08:37:01;;;;;;;;;;;;;;;13.78;61.35;102473.16;5060713;28;1121;-73
2023/05/29 08:39:26;;;;;;;;;;;;;;;13.77;61.66;102479.34;5026417;28;1223;-70
2023/05/29 08:41:57;;;;;;;;;;;;;;;13.81;61.21;102483.38;5049926;28;1125;-72
2023/05/29 08:44:23;;;;;;;;;;;;;;;13.91;60.92;102477.53;5034369;28;1538;-69
2023/05/29 08:46:55;;;;;;;;;;;;;;;14.05;60.81;102486.09;5054761;28;1054;-71
2023/05/29 08:49:22;;;;;;;;;;;;;;;14.13;60.93;102482.94;5050111;28;1898;-72
2023/05/29 08:51:50;;;;;;;;;;;;;;;14.23;59.86;102477.91;5050210;28;1053;-71
2023/05/29 08:54:16;;;;;;;;;;;;;;;14.30;59.95;102474.75;5053838;28;1542;-69
2023/05/29 08:56:41;;;;;;;;;;;;;;;14.37;59.96;102480.34;5050078;28;1216;-68
2023/05/29 08:59:07;;;;;;;;;;;;;;;14.40;60.01;102479.31;5059095;28;1072;-69
2023/05/29 09:01:34;;;;;;;;;;;;;;;14.39;58.32;102482.84;5032618;28;1363;-70
2023/05/29 09:04:00;;;;;;;;;;;;;;;14.30;59.39;102485.19;5058126;28;1160;-68
2023/05/29 09:06:26;;;;;;;;;;;;;;;14.34;59.94;102481.41;5050959;28;1341;-69
2023/05/29 09:08:52;;;;;;;;;;;;;;;14.43;58.06;102477.31;5040034;28;1918;-73
2023/05/29 09:11:17;;;;;;;;;;;;;;;14.49;58.56;102489.13;5059196;28;1175;-71
2023/05/29 09:13:42;;;;;;;;;;;;;;;14.62;59.84;102484.66;5052531;28;1074;-69
2023/05/29 09:16:08;;;;;;;;;;;;;;;14.76;58.79;102483.69;5056385;28;1324;-69
2023/05/29 09:18:33;;;;;;;;;;;;;;;14.79;59.11;102479.06;5048109;28;1566;-69
2023/05/29 09:20:58;;;;;;;;;;;;;;;14.86;58.02;102492.53;5045114;28;1325;-69
2023/05/29 09:23:25;;;;;;;;;;;;;;;14.88;57.84;102481.00;5048289;28;1110;-70
2023/05/29 09:25:52;;;;;;;;;;;;;;;14.91;58.28;102476.50;5062041;28;1105;-70
2023/05/29 09:28:18;;;;;;;;;;;;;;;14.86;57.80;102477.69;5045452;28;1435;-69
2023/05/29 09:30:46;;;;;;;;;;;;;;;14.95;58.87;102480.56;5057536;28;1949;-70
2023/05/29 09:33:12;;;;;;;;;;;;;;;15.03;58.53;102483.44;5050237;28;1221;-69
2023/05/29 09:35:42;;;;;;;;;;;;;;;15.13;58.38;102484.41;5057926;28;1053;-73
2023/05/29 09:38:08;;;;;;;;;;;;;;;15.27;58.62;102479.00;5053142;28;1182;-70
2023/05/29 09:40:34;;;;;;;;;;;;;;;15.44;58.21;102467.28;5054541;28;1147;-73
2023/05/29 09:43:17;;;;;;;;;;;;;;;15.59;58.28;102479.16;5050438;28;1081;-73
2023/05/29 09:45:43;;;;;;;;;;;;;;;15.67;56.88;102481.22;5053581;28;1050;-73
2023/05/29 09:48:12;;;;;;;;;;;;;;;15.70;57.72;102473.13;5052270;28;1475;-71
2023/05/29 09:50:37;;;;;;;;;;;;;;;15.77;57.52;102476.97;5055902;28;1883;-74
2023/05/29 09:53:03;;;;;;;;;;;;;;;15.84;55.76;102470.28;5059260;28;1125;-72
2023/05/29 09:55:31;;;;;;;;;;;;;;;15.79;56.17;102472.44;5062380;28;1108;-73
2023/05/29 09:57:57;;;;;;;;;;;;;;;15.92;56.58;102467.91;5056413;28;1401;-74
2023/05/29 10:00:23;;;;;;;;;;;;;;;16.04;56.24;102475.75;5036905;28;1676;-74
2023/05/29 10:02:49;;;;;;;;;;;;;;;16.10;56.93;102470.03;5055102;28;1115;-73
2023/05/29 10:05:15;;;;;;;;;;;;;;;16.20;56.87;102465.75;5054261;28;995;-74
2023/05/29 10:07:43;;;;;;;;;;;;;;;16.29;55.90;102465.00;5061334;28;1260;-69
2023/05/29 10:10:10;;;;;;;;;;;;;;;16.40;56.79;102472.84;5034162;28;1919;-73
2023/05/29 10:12:38;;;;;;;;;;;;;;;16.50;54.79;102457.19;5053842;28;1311;-72
2023/05/29 10:15:06;;;;;;;;;;;;;;;16.55;54.94;102469.94;5039538;28;1192;-67
2023/05/29 10:17:36;;;;;;;;;;;;;;;16.51;55.67;102463.28;5058991;28;1427;-72
2023/05/29 10:20:02;;;;;;;;;;;;;;;16.61;55.95;102464.19;5034251;28;1290;-72
2023/05/29 10:22:28;;;;;;;;;;;;;;;16.69;55.39;102464.41;5054779;28;1171;-69
2023/05/29 10:24:55;;;;;;;;;;;;;;;16.81;56.11;102460.81;5051366;28;1102;-72
2023/05/29 10:27:21;;;;;;;;;;;;;;;16.95;54.58;102467.53;5035519;28;1317;-73
2023/05/29 10:29:56;;;;;;;;;;;;;;;16.97;55.49;102466.47;5049394;28;1969;-73
2023/05/29 10:32:40;;;;;;;;;;;;;;;17.04;54.78;102471.22;5028323;28;1389;-73
2023/05/29 10:35:24;;;;;;;;;;;;;;;17.14;53.84;102461.59;5029550;28;1208;-72
2023/05/29 10:37:59;;;;;;;;;;;;;;;17.25;54.28;102453.66;5058233;28;1228;-74
2023/05/29 10:40:25;;;;;;;;;;;;;;;17.29;52.29;102460.31;5054641;28;1075;-73
2023/05/29 10:42:54;;;;;;;;;;;;;;;17.20;52.93;102455.84;5056424;28;1069;-73
2023/05/29 10:45:28;;;;;;;;;;;;;;;17.16;53.54;102451.84;5037356;28;1336;-73
2023/05/29 10:47:54;;;;;;;;;;;;;;;17.25;53.27;102443.16;5065530;28;1194;-73
2023/05/29 10:50:35;;;;;;;;;;;;;;;17.37;53.33;102447.38;5042982;28;1919;-75
2023/05/29 10:53:00;;;;;;;;;;;;;;;17.44;51.93;102453.78;5060542;28;1029;-73
2023/05/29 10:55:33;;;;;;;;;;;;;;;17.45;51.57;102444.94;5057549;28;1061;-73
2023/05/29 10:57:58;;;;;;;;;;;;;;;17.53;51.64;102441.66;5044173;28;1318;-74
2023/05/29 11:00:24;;;;;;;;;;;;;;;17.54;51.17;102448.56;5057910;28;1172;-73
2023/05/29 11:02:51;;;;;;;;;;;;;;;17.52;52.13;102459.19;5060313;28;1095;-73
2023/05/29 11:05:20;;;;;;;;;;;;;;;17.57;49.75;102450.13;5055005;28;1374;-73
2023/05/29 11:07:56;;;;;;;;;;;;;;;17.41;49.29;102448.78;5061682;28;1218;-73
2023/05/29 11:10:42;;;;;;;;;;;;;;;17.34;49.26;102450.28;5059698;28;1898;-73
2023/05/29 11:13:07;;;;;;;;;;;;;;;17.24;48.81;102446.75;5047368;28;1115;-73
2023/05/29 11:15:33;;;;;;;;;;;;;;;17.17;46.87;102445.63;5052107;28;1058;-73
2023/05/29 11:18:05;;;;;;;;;;;;;;;17.18;48.53;102442.03;5064233;28;1191;-73
2023/05/29 11:20:41;;;;;;;;;;;;;;;17.18;48.94;102447.28;5046001;28;1253;-74
2023/05/29 11:23:12;;;;;;;;;;;;;;;17.34;47.90;102442.41;5039749;28;1183;-73
2023/05/29 11:25:38;;;;;;;;;;;;;;;17.44;49.22;102448.53;5041200;28;1494;-73
2023/05/29 11:28:07;;;;;;;;;;;;;;;17.54;48.97;102451.19;5058547;28;1282;-73
2023/05/29 11:30:40;;;;;;;;;;;;;;;17.64;46.09;102453.88;5037079;28;1889;-73
2023/05/29 11:33:08;;;;;;;;;;;;;;;17.56;47.40;102451.09;5054866;28;981;-72
2023/05/29 11:35:34;;;;;;;;;;;;;;;17.63;47.33;102452.22;5059537;28;1119;-74
2023/05/29 11:38:00;;;;;;;;;;;;;;;17.56;46.40;102451.91;5040965;28;1270;-72
2023/05/29 11:40:26;;;;;;;;;;;;;;;17.66;45.57;102446.69;5064300;28;1135;-74
2023/05/29 11:42:51;;;;;;;;;;;;;;;17.64;43.93;102443.38;5049643;28;1166;-73
2023/05/29 11:45:18;;;;;;;;;;;;;;;17.52;44.58;102440.00;5050739;28;1340;-73
2023/05/29 11:47:52;;;;;;;;;;;;;;;17.55;45.11;102436.28;5052712;28;1221;-74
2023/05/29 11:50:22;;;;;;;;;;;;;;;17.65;47.46;102434.53;5043129;28;1886;-71
2023/05/29 11:52:47;;;;;;;;;;;;;;;17.73;45.07;102447.88;5052285;28;1018;-73
2023/05/29 11:55:12;;;;;;;;;;;;;;;17.69;45.46;102451.69;5054543;28;1241;-71
2023/05/29 11:57:37;;;;;;;;;;;;;;;17.74;46.31;102444.28;5063568;28;1225;-73
2023/05/29 12:00:09;;;;;;;;;;;;;;;17.76;46.05;102437.94;5053350;28;1151;-74
2023/05/29 12:02:38;;;;;;;;;;;;;;;17.84;46.15;102429.41;5033135;28;1304;-70
2023/05/29 12:05:04;;;;;;;;;;;;;;;17.85;47.07;102436.31;5037416;28;1264;-73
2023/05/29 12:07:29;;;;;;;;;;;;;;;17.95;46.52;102447.69;5054457;28;1351;-72
2023/05/29 12:09:57;;;;;;;;;;;;;;;18.01;47.57;102439.25;5058294;28;1901;-72
2023/05/29 12:12:23;;;;;;;;;;;;;;;18.03;46.36;102439.94;5057493;28;1207;-72
2023/05/29 12:14:52;;;;;;;;;;;;;;;18.07;44.88;102444.94;5048981;28;1090;-74
2023/05/29 12:17:18;;;;;;;;;;;;;;;17.98;44.02;102436.88;5051986;28;1208;-73
2023/05/29 12:19:43;;;;;;;;;;;;;;;18.02;45.19;102440.09;5058642;28;1161;-72
2023/05/29 12:22:08;;;;;;;;;;;;;;;18.08;45.66;102441.34;5053967;28;1017;-72
2023/05/29 12:24:34;;;;;;;;;;;;;;;18.10;45.65;102429.72;5053329;28;1042;-73
2023/05/29 12:27:04;;;;;;;;;;;;;;;18.15;46.24;102432.78;5044260;28;1300;-69
2023/05/29 12:29:29;;;;;;;;;;;;;;;18.16;45.26;102441.50;5055627;28;1976;-70
2023/05/29 12:31:58;;;;;;;;;;;;;;;18.27;45.61;102428.25;5051086;28;1092;-70
2023/05/29 12:34:24;;;;;;;;;;;;;;;18.30;43.03;102431.44;5049961;28;1321;-69
2023/05/29 12:36:49;;;;;;;;;;;;;;;18.24;44.27;102431.97;5057667;28;1190;-70
2023/05/29 12:39:14;;;;;;;;;;;;;;;18.29;44.62;102440.28;5043585;28;1253;-71
2023/05/29 12:41:39;;;;;;;;;;;;;;;18.21;44.37;102432.25;5065343;28;977;-71
2023/05/29 12:44:05;;;;;;;;;;;;;;;18.19;43.71;102438.59;5026384;28;1346;-67